»·PEaware :: SWA1850 KELP-KABQ

SWA1850 :: KELP-KABQ

FLIGHT INFORMATION

Flight Status: Arrived
Operator:
Southwest Airlines
More flights by this operator :: More flights under this callsign
Pilot: Jacob H. (10561)
Aircraft: BOEING 737-800
(B738)
More flights by this aircraft type
Origin: KELP El Paso Intl
United States
Destination: KABQ Albuquerque Intl Sunport
United States
More flights between these airports :: More routes between these airports
Route: RUTER TCS J13 ABQ
File this flight plan on PilotEdge
Remarks:
Altitude:
(Current/Filed)
38,000ft
Speed:
(Current/Filed)
463kts
Departed: 10-Jan-18 07:39 PM
Arrived: 10-Jan-18 08:37 PM
Distance/Time
Traveled:
195nm/0:58
Distance/Time
To Go:
Arrived

Flight Plot

Page will automatically refresh every two minutes.

Flight plan parsing failed; only flown route is shown


Map Options




Map Legend


Flown Route
Filed Route
Departure Airport
Arrival Airport
Navaid (VOR, NDB)
Fix

Horizontal Profiles

Position Reports

Time Latitude Longitude Heading Altitude Ground
Speed
10-Jan-18 19:17 31.800378 -106.395567 181 3922ft 0kts
10-Jan-18 19:18 31.800378 -106.395567 181 3922ft 0kts
10-Jan-18 19:19 31.800378 -106.395567 181 3922ft 0kts
10-Jan-18 19:20 31.800378 -106.395567 181 3922ft 0kts
10-Jan-18 19:21 31.800378 -106.395567 181 3922ft 0kts
10-Jan-18 19:22 31.800378 -106.395567 181 3922ft 0kts
10-Jan-18 19:23 31.800378 -106.395567 181 3922ft 0kts
10-Jan-18 19:24 31.800378 -106.395567 181 3922ft 0kts
10-Jan-18 19:25 31.800378 -106.395567 181 3922ft 0kts
10-Jan-18 19:26 31.800378 -106.395567 181 3922ft 0kts
10-Jan-18 19:27 31.800734 -106.395529 207 3922ft 2kts
10-Jan-18 19:28 31.801233 -106.395275 178 3922ft 2kts
10-Jan-18 19:29 31.801479 -106.395583 93 3922ft 1kts
10-Jan-18 19:30 31.801481 -106.395600 94 3922ft 0kts
10-Jan-18 19:31 31.801388 -106.394003 95 3924ft 3kts
10-Jan-18 19:32 31.800555 -106.391103 139 3925ft 9kts
10-Jan-18 19:33 31.799891 -106.387897 91 3929ft 12kts
10-Jan-18 19:34 31.799917 -106.383300 88 3938ft 11kts
10-Jan-18 19:35 31.799805 -106.377042 94 3944ft 27kts
10-Jan-18 19:36 31.799325 -106.367495 94 3958ft 20kts
10-Jan-18 19:37 31.799090 -106.362250 93 3953ft 16kts
10-Jan-18 19:38 31.799483 -106.359861 9 3947ft 0kts
10-Jan-18 19:39 31.799483 -106.359862 9 3947ft 0kts
10-Jan-18 19:40 31.799483 -106.359862 9 3947ft 0kts
10-Jan-18 19:41 31.799483 -106.359862 9 3947ft 0kts
10-Jan-18 19:42 31.799483 -106.359861 9 3947ft 0kts
10-Jan-18 19:43 31.799483 -106.359862 9 3947ft 0kts
10-Jan-18 19:44 31.800601 -106.360192 290 3948ft 14kts
10-Jan-18 19:45 31.802487 -106.389178 268 4334ft 153kts
10-Jan-18 19:46 31.791275 -106.443380 226 6149ft 216kts
10-Jan-18 19:47 31.725874 -106.435924 142 8736ft 306kts
10-Jan-18 19:48 31.688580 -106.345364 89 11625ft 355kts
10-Jan-18 19:49 31.737037 -106.253901 16 15252ft 329kts
10-Jan-18 19:50 31.815002 -106.268482 315 16922ft 296kts
10-Jan-18 19:51 31.869353 -106.340751 310 16907ft 299kts
10-Jan-18 19:52 31.925223 -106.416805 310 18458ft 329kts
10-Jan-18 19:53 31.998366 -106.471481 327 22091ft 324kts
10-Jan-18 19:54 32.078365 -106.523161 328 24720ft 340kts
10-Jan-18 19:55 32.161288 -106.576269 328 27471ft 346kts
10-Jan-18 19:56 32.244302 -106.629296 328 30363ft 337kts
10-Jan-18 19:57 32.323426 -106.679771 328 32867ft 327kts
10-Jan-18 19:58 32.402186 -106.729852 327 34940ft 322kts
10-Jan-18 19:59 32.481187 -106.779939 326 36517ft 326kts
10-Jan-18 20:00 32.560938 -106.830368 326 37833ft 330kts
10-Jan-18 20:01 32.644508 -106.883095 327 37953ft 356kts
10-Jan-18 20:02 32.735531 -106.940305 327 37952ft 386kts
10-Jan-18 20:03 32.832334 -107.000940 327 37914ft 397kts
10-Jan-18 20:04 32.929251 -107.061491 327 37882ft 395kts
10-Jan-18 20:05 33.025761 -107.121594 328 37880ft 395kts
10-Jan-18 20:06 33.122297 -107.181523 328 37887ft 396kts
10-Jan-18 20:07 33.219718 -107.241804 328 37885ft 397kts
10-Jan-18 20:08 33.326517 -107.267515 4 37901ft 429kts
10-Jan-18 20:09 33.409677 -107.247191 4 37883ft 430kts
10-Jan-18 20:10 33.518566 -107.218410 3 37218ft 379kts
10-Jan-18 20:11 33.615481 -107.192865 2 35480ft 350kts
10-Jan-18 20:12 33.710339 -107.167908 2 33731ft 352kts
10-Jan-18 20:13 33.805487 -107.142834 3 31984ft 358kts
10-Jan-18 20:14 33.902887 -107.117142 4 30196ft 365kts
10-Jan-18 20:15 34.000996 -107.091260 4 28393ft 370kts
10-Jan-18 20:16 34.101523 -107.064749 4 26548ft 375kts
10-Jan-18 20:17 34.201351 -107.038410 5 24717ft 375kts
10-Jan-18 20:18 34.298342 -107.012819 5 22268ft 367kts
10-Jan-18 20:19 34.393183 -106.987809 5 19762ft 357kts
10-Jan-18 20:20 34.486477 -106.963183 5 17165ft 334kts
10-Jan-18 20:21 34.571287 -106.940836 5 14642ft 319kts
10-Jan-18 20:22 34.655051 -106.918787 6 12083ft 313kts
10-Jan-18 20:23 34.739206 -106.896599 8 10988ft 312kts
10-Jan-18 20:24 34.820857 -106.875057 9 9774ft 287kts
10-Jan-18 20:25 34.897972 -106.854727 10 8111ft 286kts
10-Jan-18 20:26 34.969929 -106.835722 9 8047ft 237kts
10-Jan-18 20:27 35.028179 -106.818958 21 8034ft 193kts
10-Jan-18 20:28 35.047190 -106.762475 90 8272ft 180kts
10-Jan-18 20:29 35.044749 -106.701493 89 6445ft 166kts
10-Jan-18 20:30 35.056882 -106.650259 17 6782ft 183kts
10-Jan-18 20:31 35.102450 -106.674063 318 9146ft 217kts
10-Jan-18 20:32 35.153375 -106.717293 334 7945ft 218kts
10-Jan-18 20:33 35.183504 -106.765904 277 8368ft 192kts
10-Jan-18 20:34 35.182067 -106.831067 268 8990ft 195kts
10-Jan-18 20:35 35.180237 -106.896326 268 8987ft 195kts
10-Jan-18 20:36 35.146142 -106.936831 174 8172ft 209kts
10-Jan-18 20:37 35.090185 -106.920002 161 7984ft 217kts
10-Jan-18 20:38 35.055593 -106.861403 118 7988ft 224kts
10-Jan-18 20:39 35.046979 -106.791620 64 7478ft 219kts
10-Jan-18 20:40 35.043849 -106.722700 86 6934ft 200kts
10-Jan-18 20:41 35.044972 -106.663148 96 6220ft 184kts
10-Jan-18 20:42 35.044322 -106.605885 89 5320ft 138kts
10-Jan-18 20:43 35.044754 -106.592211 65 5329ft 22kts
10-Jan-18 20:44 35.045837 -106.595278 266 5326ft 25kts
10-Jan-18 20:45 35.045760 -106.603092 270 5323ft 15kts

Navigation Log

Ident Type
Flight plan parsing failed, navigation log unavailable